sensor_id;sensor_type;location;lat;lon;timestamp;P1;durP1;ratioP1;P2;durP2;ratioP2
4307;SDS011;2167;53.448;9.984;2023-09-30T00:01:47;5.93;;;1.90;;
4307;SDS011;2167;53.448;9.984;2023-09-30T00:04:14;11.37;;;2.40;;
4307;SDS011;2167;53.448;9.984;2023-09-30T00:06:40;5.47;;;1.60;;
4307;SDS011;2167;53.448;9.984;2023-09-30T00:09:06;5.27;;;1.63;;
4307;SDS011;2167;53.448;9.984;2023-09-30T00:11:32;2.93;;;2.17;;
4307;SDS011;2167;53.448;9.984;2023-09-30T00:13:58;4.63;;;2.37;;
4307;SDS011;2167;53.448;9.984;2023-09-30T00:16:24;10.10;;;2.50;;
4307;SDS011;2167;53.448;9.984;2023-09-30T00:18:50;3.80;;;1.97;;
4307;SDS011;2167;53.448;9.984;2023-09-30T00:21:19;6.90;;;2.20;;
4307;SDS011;2167;53.448;9.984;2023-09-30T00:23:45;11.03;;;2.00;;
4307;SDS011;2167;53.448;9.984;2023-09-30T00:26:11;9.27;;;2.40;;
4307;SDS011;2167;53.448;9.984;2023-09-30T00:28:37;8.83;;;1.80;;
4307;SDS011;2167;53.448;9.984;2023-09-30T00:31:06;7.40;;;2.00;;
4307;SDS011;2167;53.448;9.984;2023-09-30T00:33:34;7.10;;;1.63;;
4307;SDS011;2167;53.448;9.984;2023-09-30T00:36:04;5.90;;;1.93;;
4307;SDS011;2167;53.448;9.984;2023-09-30T00:38:30;11.93;;;2.57;;
4307;SDS011;2167;53.448;9.984;2023-09-30T00:40:56;9.03;;;2.37;;
4307;SDS011;2167;53.448;9.984;2023-09-30T00:43:22;10.70;;;2.40;;
4307;SDS011;2167;53.448;9.984;2023-09-30T00:45:48;10.10;;;2.00;;
4307;SDS011;2167;53.448;9.984;2023-09-30T00:48:17;6.43;;;1.90;;
4307;SDS011;2167;53.448;9.984;2023-09-30T00:50:43;16.17;;;2.10;;
4307;SDS011;2167;53.448;9.984;2023-09-30T00:53:09;6.07;;;2.87;;
4307;SDS011;2167;53.448;9.984;2023-09-30T00:55:35;5.73;;;1.63;;
4307;SDS011;2167;53.448;9.984;2023-09-30T00:58:02;11.17;;;2.90;;
4307;SDS011;2167;53.448;9.984;2023-09-30T01:00:28;5.83;;;1.73;;
4307;SDS011;2167;53.448;9.984;2023-09-30T01:02:54;8.73;;;2.17;;
4307;SDS011;2167;53.448;9.984;2023-09-30T01:05:21;6.03;;;1.70;;
4307;SDS011;2167;53.448;9.984;2023-09-30T01:07:47;4.47;;;1.70;;
4307;SDS011;2167;53.448;9.984;2023-09-30T01:10:13;6.60;;;2.87;;
4307;SDS011;2167;53.448;9.984;2023-09-30T01:12:40;4.57;;;1.83;;
4307;SDS011;2167;53.448;9.984;2023-09-30T01:15:07;4.13;;;1.40;;
4307;SDS011;2167;53.448;9.984;2023-09-30T01:17:36;5.30;;;1.70;;
4307;SDS011;2167;53.448;9.984;2023-09-30T01:20:02;2.50;;;1.93;;
4307;SDS011;2167;53.448;9.984;2023-09-30T01:22:30;6.23;;;2.67;;
4307;SDS011;2167;53.448;9.984;2023-09-30T01:24:57;8.80;;;1.73;;
4307;SDS011;2167;53.448;9.984;2023-09-30T01:27:23;10.70;;;1.87;;
4307;SDS011;2167;53.448;9.984;2023-09-30T01:29:50;9.00;;;2.87;;
4307;SDS011;2167;53.448;9.984;2023-09-30T01:32:16;8.67;;;2.03;;
4307;SDS011;2167;53.448;9.984;2023-09-30T01:34:42;8.70;;;3.00;;
4307;SDS011;2167;53.448;9.984;2023-09-30T01:37:09;9.40;;;2.53;;
4307;SDS011;2167;53.448;9.984;2023-09-30T01:39:35;6.23;;;1.30;;
4307;SDS011;2167;53.448;9.984;2023-09-30T01:42:01;14.43;;;2.03;;
4307;SDS011;2167;53.448;9.984;2023-09-30T01:44:27;6.70;;;1.87;;
4307;SDS011;2167;53.448;9.984;2023-09-30T01:46:53;6.87;;;2.33;;
4307;SDS011;2167;53.448;9.984;2023-09-30T01:49:19;17.63;;;2.83;;
4307;SDS011;2167;53.448;9.984;2023-09-30T01:51:45;4.77;;;1.53;;
4307;SDS011;2167;53.448;9.984;2023-09-30T01:54:11;5.70;;;1.70;;
4307;SDS011;2167;53.448;9.984;2023-09-30T01:56:37;5.83;;;1.90;;
4307;SDS011;2167;53.448;9.984;2023-09-30T01:59:03;7.87;;;2.17;;
4307;SDS011;2167;53.448;9.984;2023-09-30T02:01:29;7.00;;;2.03;;
4307;SDS011;2167;53.448;9.984;2023-09-30T02:03:55;5.23;;;1.80;;
4307;SDS011;2167;53.448;9.984;2023-09-30T02:06:21;7.10;;;1.57;;
4307;SDS011;2167;53.448;9.984;2023-09-30T02:08:47;4.83;;;2.10;;
4307;SDS011;2167;53.448;9.984;2023-09-30T02:11:13;12.30;;;2.70;;
4307;SDS011;2167;53.448;9.984;2023-09-30T02:13:39;9.03;;;2.43;;
4307;SDS011;2167;53.448;9.984;2023-09-30T02:16:06;11.17;;;2.50;;
4307;SDS011;2167;53.448;9.984;2023-09-30T02:18:36;4.80;;;1.93;;
4307;SDS011;2167;53.448;9.984;2023-09-30T02:21:02;16.00;;;2.97;;
4307;SDS011;2167;53.448;9.984;2023-09-30T02:23:29;8.70;;;2.10;;
4307;SDS011;2167;53.448;9.984;2023-09-30T02:25:55;9.17;;;2.03;;
4307;SDS011;2167;53.448;9.984;2023-09-30T02:28:21;6.17;;;1.87;;
4307;SDS011;2167;53.448;9.984;2023-09-30T02:30:47;6.97;;;1.90;;
4307;SDS011;2167;53.448;9.984;2023-09-30T02:33:13;4.90;;;2.23;;
4307;SDS011;2167;53.448;9.984;2023-09-30T02:35:43;7.63;;;2.70;;
4307;SDS011;2167;53.448;9.984;2023-09-30T02:38:10;6.90;;;2.70;;
4307;SDS011;2167;53.448;9.984;2023-09-30T02:40:36;5.50;;;1.70;;
4307;SDS011;2167;53.448;9.984;2023-09-30T02:43:03;3.87;;;2.13;;
4307;SDS011;2167;53.448;9.984;2023-09-30T02:45:29;6.70;;;1.73;;
4307;SDS011;2167;53.448;9.984;2023-09-30T02:47:55;6.20;;;2.20;;
4307;SDS011;2167;53.448;9.984;2023-09-30T02:50:21;4.50;;;2.17;;
4307;SDS011;2167;53.448;9.984;2023-09-30T02:52:47;11.20;;;2.53;;
4307;SDS011;2167;53.448;9.984;2023-09-30T02:55:14;12.17;;;2.70;;
4307;SDS011;2167;53.448;9.984;2023-09-30T02:57:41;7.20;;;2.83;;
4307;SDS011;2167;53.448;9.984;2023-09-30T03:00:08;9.77;;;2.20;;
4307;SDS011;2167;53.448;9.984;2023-09-30T03:02:54;7.47;;;2.83;;
4307;SDS011;2167;53.448;9.984;2023-09-30T03:05:20;11.60;;;3.30;;
4307;SDS011;2167;53.448;9.984;2023-09-30T03:07:47;4.57;;;2.33;;
4307;SDS011;2167;53.448;9.984;2023-09-30T03:10:15;14.00;;;3.20;;
4307;SDS011;2167;53.448;9.984;2023-09-30T03:12:49;10.43;;;2.20;;
4307;SDS011;2167;53.448;9.984;2023-09-30T03:15:15;9.53;;;2.90;;
4307;SDS011;2167;53.448;9.984;2023-09-30T03:17:41;6.60;;;1.70;;
4307;SDS011;2167;53.448;9.984;2023-09-30T03:20:08;9.93;;;2.53;;
4307;SDS011;2167;53.448;9.984;2023-09-30T03:22:40;5.57;;;2.60;;
4307;SDS011;2167;53.448;9.984;2023-09-30T03:25:07;2.93;;;1.93;;
4307;SDS011;2167;53.448;9.984;2023-09-30T03:27:34;10.93;;;2.83;;
4307;SDS011;2167;53.448;9.984;2023-09-30T03:30:01;8.00;;;2.37;;
4307;SDS011;2167;53.448;9.984;2023-09-30T03:32:27;14.37;;;3.20;;
4307;SDS011;2167;53.448;9.984;2023-09-30T03:34:54;6.57;;;2.43;;
4307;SDS011;2167;53.448;9.984;2023-09-30T03:37:24;9.83;;;3.10;;
4307;SDS011;2167;53.448;9.984;2023-09-30T03:39:52;7.00;;;2.37;;
4307;SDS011;2167;53.448;9.984;2023-09-30T03:42:18;12.30;;;2.87;;
4307;SDS011;2167;53.448;9.984;2023-09-30T03:44:44;12.03;;;3.67;;
4307;SDS011;2167;53.448;9.984;2023-09-30T03:47:10;6.20;;;2.33;;
4307;SDS011;2167;53.448;9.984;2023-09-30T03:49:36;9.60;;;2.60;;
4307;SDS011;2167;53.448;9.984;2023-09-30T03:52:03;13.00;;;3.50;;
4307;SDS011;2167;53.448;9.984;2023-09-30T03:54:31;8.90;;;3.07;;
4307;SDS011;2167;53.448;9.984;2023-09-30T03:56:57;6.83;;;2.20;;
4307;SDS011;2167;53.448;9.984;2023-09-30T03:59:24;8.33;;;2.60;;
4307;SDS011;2167;53.448;9.984;2023-09-30T04:01:51;4.97;;;2.50;;
4307;SDS011;2167;53.448;9.984;2023-09-30T04:04:18;8.03;;;2.00;;
4307;SDS011;2167;53.448;9.984;2023-09-30T04:06:46;10.63;;;2.70;;
4307;SDS011;2167;53.448;9.984;2023-09-30T04:09:13;4.17;;;2.27;;
4307;SDS011;2167;53.448;9.984;2023-09-30T04:11:40;10.00;;;2.50;;
4307;SDS011;2167;53.448;9.984;2023-09-30T04:14:07;9.23;;;2.90;;
4307;SDS011;2167;53.448;9.984;2023-09-30T04:16:33;10.93;;;2.87;;
4307;SDS011;2167;53.448;9.984;2023-09-30T04:19:00;7.87;;;3.10;;
4307;SDS011;2167;53.448;9.984;2023-09-30T04:21:26;6.10;;;3.37;;
4307;SDS011;2167;53.448;9.984;2023-09-30T04:23:54;6.83;;;2.93;;
4307;SDS011;2167;53.448;9.984;2023-09-30T04:26:21;8.30;;;3.23;;
4307;SDS011;2167;53.448;9.984;2023-09-30T04:28:47;9.70;;;2.40;;
4307;SDS011;2167;53.448;9.984;2023-09-30T04:31:14;7.80;;;2.40;;
4307;SDS011;2167;53.448;9.984;2023-09-30T04:33:40;7.63;;;2.80;;
4307;SDS011;2167;53.448;9.984;2023-09-30T04:36:06;8.83;;;2.07;;
4307;SDS011;2167;53.448;9.984;2023-09-30T04:38:36;5.67;;;2.50;;
4307;SDS011;2167;53.448;9.984;2023-09-30T04:41:05;7.40;;;2.20;;
4307;SDS011;2167;53.448;9.984;2023-09-30T04:43:32;4.20;;;2.80;;
4307;SDS011;2167;53.448;9.984;2023-09-30T04:45:58;22.17;;;3.60;;
4307;SDS011;2167;53.448;9.984;2023-09-30T04:48:24;8.47;;;2.87;;
4307;SDS011;2167;53.448;9.984;2023-09-30T04:50:50;6.73;;;2.93;;
4307;SDS011;2167;53.448;9.984;2023-09-30T04:53:17;7.07;;;2.60;;
4307;SDS011;2167;53.448;9.984;2023-09-30T04:55:43;4.70;;;2.30;;
4307;SDS011;2167;53.448;9.984;2023-09-30T04:58:10;9.77;;;2.60;;
4307;SDS011;2167;53.448;9.984;2023-09-30T05:00:37;17.50;;;3.90;;
4307;SDS011;2167;53.448;9.984;2023-09-30T05:03:04;4.23;;;2.80;;
4307;SDS011;2167;53.448;9.984;2023-09-30T05:05:30;8.43;;;2.70;;
4307;SDS011;2167;53.448;9.984;2023-09-30T05:07:56;18.67;;;3.10;;
4307;SDS011;2167;53.448;9.984;2023-09-30T05:10:23;3.27;;;2.40;;
4307;SDS011;2167;53.448;9.984;2023-09-30T05:12:49;7.47;;;3.00;;
4307;SDS011;2167;53.448;9.984;2023-09-30T05:15:19;10.93;;;3.13;;
4307;SDS011;2167;53.448;9.984;2023-09-30T05:17:45;16.13;;;3.23;;
4307;SDS011;2167;53.448;9.984;2023-09-30T05:20:11;13.70;;;3.30;;
4307;SDS011;2167;53.448;9.984;2023-09-30T05:22:41;5.53;;;2.63;;
4307;SDS011;2167;53.448;9.984;2023-09-30T05:25:10;12.23;;;3.83;;
4307;SDS011;2167;53.448;9.984;2023-09-30T05:27:36;9.20;;;2.70;;
4307;SDS011;2167;53.448;9.984;2023-09-30T05:30:02;3.77;;;2.50;;
4307;SDS011;2167;53.448;9.984;2023-09-30T05:32:29;4.97;;;2.30;;
4307;SDS011;2167;53.448;9.984;2023-09-30T05:34:55;10.60;;;3.00;;
4307;SDS011;2167;53.448;9.984;2023-09-30T05:37:22;12.13;;;3.30;;
4307;SDS011;2167;53.448;9.984;2023-09-30T05:39:49;7.90;;;2.80;;
4307;SDS011;2167;53.448;9.984;2023-09-30T05:42:15;7.87;;;2.30;;
4307;SDS011;2167;53.448;9.984;2023-09-30T05:44:41;3.57;;;2.70;;
4307;SDS011;2167;53.448;9.984;2023-09-30T05:47:10;7.73;;;2.10;;
4307;SDS011;2167;53.448;9.984;2023-09-30T05:49:37;14.03;;;3.80;;
4307;SDS011;2167;53.448;9.984;2023-09-30T05:52:03;8.80;;;3.07;;
4307;SDS011;2167;53.448;9.984;2023-09-30T05:54:32;7.30;;;2.63;;
4307;SDS011;2167;53.448;9.984;2023-09-30T05:56:59;5.53;;;2.47;;
4307;SDS011;2167;53.448;9.984;2023-09-30T05:59:25;14.00;;;3.50;;
4307;SDS011;2167;53.448;9.984;2023-09-30T06:01:53;4.83;;;2.40;;
4307;SDS011;2167;53.448;9.984;2023-09-30T06:04:19;11.87;;;3.80;;
4307;SDS011;2167;53.448;9.984;2023-09-30T06:06:46;9.90;;;2.60;;
4307;SDS011;2167;53.448;9.984;2023-09-30T06:09:11;4.43;;;2.27;;
4307;SDS011;2167;53.448;9.984;2023-09-30T06:11:37;6.30;;;2.73;;
4307;SDS011;2167;53.448;9.984;2023-09-30T06:14:05;5.03;;;2.37;;
4307;SDS011;2167;53.448;9.984;2023-09-30T06:16:31;4.33;;;1.93;;
4307;SDS011;2167;53.448;9.984;2023-09-30T06:18:57;8.83;;;2.83;;
4307;SDS011;2167;53.448;9.984;2023-09-30T06:21:24;8.33;;;2.73;;
4307;SDS011;2167;53.448;9.984;2023-09-30T06:23:53;7.30;;;2.83;;
4307;SDS011;2167;53.448;9.984;2023-09-30T06:26:19;9.20;;;3.23;;
4307;SDS011;2167;53.448;9.984;2023-09-30T06:28:50;2.27;;;1.53;;
4307;SDS011;2167;53.448;9.984;2023-09-30T06:31:18;6.00;;;2.10;;
4307;SDS011;2167;53.448;9.984;2023-09-30T06:33:44;7.90;;;3.20;;
4307;SDS011;2167;53.448;9.984;2023-09-30T06:36:11;9.73;;;2.70;;
4307;SDS011;2167;53.448;9.984;2023-09-30T06:38:39;6.20;;;3.03;;
4307;SDS011;2167;53.448;9.984;2023-09-30T06:41:06;11.97;;;3.10;;
4307;SDS011;2167;53.448;9.984;2023-09-30T06:43:33;6.10;;;2.27;;
4307;SDS011;2167;53.448;9.984;2023-09-30T06:46:05;8.70;;;2.40;;
4307;SDS011;2167;53.448;9.984;2023-09-30T06:48:32;10.10;;;2.73;;
4307;SDS011;2167;53.448;9.984;2023-09-30T06:50:58;7.53;;;3.00;;
4307;SDS011;2167;53.448;9.984;2023-09-30T06:53:25;7.17;;;2.60;;
4307;SDS011;2167;53.448;9.984;2023-09-30T06:55:51;8.20;;;3.20;;
4307;SDS011;2167;53.448;9.984;2023-09-30T06:58:18;6.73;;;2.70;;
4307;SDS011;2167;53.448;9.984;2023-09-30T07:00:46;5.30;;;2.73;;
4307;SDS011;2167;53.448;9.984;2023-09-30T07:03:14;6.13;;;3.30;;
4307;SDS011;2167;53.448;9.984;2023-09-30T07:05:40;6.97;;;3.00;;
4307;SDS011;2167;53.448;9.984;2023-09-30T07:08:06;10.77;;;3.73;;
4307;SDS011;2167;53.448;9.984;2023-09-30T07:10:33;4.80;;;2.80;;
4307;SDS011;2167;53.448;9.984;2023-09-30T07:13:03;6.43;;;2.70;;
4307;SDS011;2167;53.448;9.984;2023-09-30T07:15:31;4.33;;;2.50;;
4307;SDS011;2167;53.448;9.984;2023-09-30T07:17:58;18.73;;;3.47;;
4307;SDS011;2167;53.448;9.984;2023-09-30T07:20:24;4.57;;;2.30;;
4307;SDS011;2167;53.448;9.984;2023-09-30T07:22:51;6.83;;;2.50;;
4307;SDS011;2167;53.448;9.984;2023-09-30T07:25:17;6.37;;;2.40;;
4307;SDS011;2167;53.448;9.984;2023-09-30T07:27:43;9.27;;;2.47;;
4307;SDS011;2167;53.448;9.984;2023-09-30T07:30:10;4.00;;;2.37;;
4307;SDS011;2167;53.448;9.984;2023-09-30T07:32:37;7.63;;;3.40;;
4307;SDS011;2167;53.448;9.984;2023-09-30T07:35:03;5.00;;;2.43;;
4307;SDS011;2167;53.448;9.984;2023-09-30T07:37:29;8.40;;;3.40;;
4307;SDS011;2167;53.448;9.984;2023-09-30T07:39:55;7.03;;;2.40;;
4307;SDS011;2167;53.448;9.984;2023-09-30T07:42:21;3.43;;;2.10;;
4307;SDS011;2167;53.448;9.984;2023-09-30T07:44:48;2.40;;;1.70;;
4307;SDS011;2167;53.448;9.984;2023-09-30T07:47:14;10.43;;;2.03;;
4307;SDS011;2167;53.448;9.984;2023-09-30T07:49:40;8.00;;;2.33;;
4307;SDS011;2167;53.448;9.984;2023-09-30T07:52:06;4.93;;;1.80;;
4307;SDS011;2167;53.448;9.984;2023-09-30T07:54:33;4.13;;;2.07;;
4307;SDS011;2167;53.448;9.984;2023-09-30T07:56:59;4.60;;;2.37;;
4307;SDS011;2167;53.448;9.984;2023-09-30T07:59:25;6.40;;;2.20;;
4307;SDS011;2167;53.448;9.984;2023-09-30T08:01:51;10.13;;;2.17;;
4307;SDS011;2167;53.448;9.984;2023-09-30T08:04:22;4.40;;;1.63;;
4307;SDS011;2167;53.448;9.984;2023-09-30T08:06:48;4.23;;;2.10;;
4307;SDS011;2167;53.448;9.984;2023-09-30T08:09:16;3.57;;;1.67;;
4307;SDS011;2167;53.448;9.984;2023-09-30T08:11:43;7.93;;;2.10;;
4307;SDS011;2167;53.448;9.984;2023-09-30T08:14:09;7.67;;;2.50;;
4307;SDS011;2167;53.448;9.984;2023-09-30T08:16:36;7.23;;;2.00;;
4307;SDS011;2167;53.448;9.984;2023-09-30T08:19:02;8.03;;;1.70;;
4307;SDS011;2167;53.448;9.984;2023-09-30T08:21:29;3.57;;;1.90;;
4307;SDS011;2167;53.448;9.984;2023-09-30T08:23:55;13.83;;;2.40;;
4307;SDS011;2167;53.448;9.984;2023-09-30T08:26:21;3.70;;;1.20;;
4307;SDS011;2167;53.448;9.984;2023-09-30T08:28:47;12.10;;;2.37;;
4307;SDS011;2167;53.448;9.984;2023-09-30T08:31:13;7.77;;;1.90;;
4307;SDS011;2167;53.448;9.984;2023-09-30T08:33:39;5.10;;;1.40;;
4307;SDS011;2167;53.448;9.984;2023-09-30T08:36:09;2.40;;;1.90;;
4307;SDS011;2167;53.448;9.984;2023-09-30T08:38:38;6.00;;;2.13;;
4307;SDS011;2167;53.448;9.984;2023-09-30T08:41:05;9.27;;;1.70;;
4307;SDS011;2167;53.448;9.984;2023-09-30T08:43:34;9.87;;;1.83;;
4307;SDS011;2167;53.448;9.984;2023-09-30T08:46:03;3.07;;;1.43;;
4307;SDS011;2167;53.448;9.984;2023-09-30T08:48:29;8.40;;;1.73;;
4307;SDS011;2167;53.448;9.984;2023-09-30T08:50:58;6.00;;;1.43;;
4307;SDS011;2167;53.448;9.984;2023-09-30T08:53:24;4.63;;;1.60;;
4307;SDS011;2167;53.448;9.984;2023-09-30T08:55:54;1.70;;;1.60;;
4307;SDS011;2167;53.448;9.984;2023-09-30T08:58:23;12.13;;;2.33;;
4307;SDS011;2167;53.448;9.984;2023-09-30T09:00:50;3.53;;;1.80;;
4307;SDS011;2167;53.448;9.984;2023-09-30T09:03:17;12.57;;;2.10;;
4307;SDS011;2167;53.448;9.984;2023-09-30T09:05:44;5.37;;;1.70;;
4307;SDS011;2167;53.448;9.984;2023-09-30T09:08:10;6.37;;;1.57;;
4307;SDS011;2167;53.448;9.984;2023-09-30T09:10:41;6.27;;;2.10;;
4307;SDS011;2167;53.448;9.984;2023-09-30T09:13:13;6.33;;;1.97;;
4307;SDS011;2167;53.448;9.984;2023-09-30T09:15:39;7.83;;;1.47;;
4307;SDS011;2167;53.448;9.984;2023-09-30T09:18:06;5.43;;;1.67;;
4307;SDS011;2167;53.448;9.984;2023-09-30T09:20:32;3.30;;;1.57;;
4307;SDS011;2167;53.448;9.984;2023-09-30T09:22:59;5.83;;;1.70;;
4307;SDS011;2167;53.448;9.984;2023-09-30T09:25:25;7.50;;;2.43;;
4307;SDS011;2167;53.448;9.984;2023-09-30T09:27:52;8.00;;;2.07;;
4307;SDS011;2167;53.448;9.984;2023-09-30T09:33:00;6.83;;;1.30;;
4307;SDS011;2167;53.448;9.984;2023-09-30T09:35:26;4.63;;;1.60;;
4307;SDS011;2167;53.448;9.984;2023-09-30T09:37:57;4.90;;;1.57;;
4307;SDS011;2167;53.448;9.984;2023-09-30T09:40:25;6.00;;;1.80;;
4307;SDS011;2167;53.448;9.984;2023-09-30T09:42:51;5.80;;;1.73;;
4307;SDS011;2167;53.448;9.984;2023-09-30T09:45:20;5.53;;;1.67;;
4307;SDS011;2167;53.448;9.984;2023-09-30T09:47:48;1.97;;;1.67;;
4307;SDS011;2167;53.448;9.984;2023-09-30T09:50:14;9.17;;;1.70;;
4307;SDS011;2167;53.448;9.984;2023-09-30T09:52:41;9.33;;;1.77;;
4307;SDS011;2167;53.448;9.984;2023-09-30T09:55:10;4.27;;;1.70;;
4307;SDS011;2167;53.448;9.984;2023-09-30T09:57:36;3.63;;;1.03;;
4307;SDS011;2167;53.448;9.984;2023-09-30T10:00:03;4.77;;;1.63;;
4307;SDS011;2167;53.448;9.984;2023-09-30T10:02:36;5.50;;;1.30;;
4307;SDS011;2167;53.448;9.984;2023-09-30T10:05:05;3.03;;;1.07;;
4307;SDS011;2167;53.448;9.984;2023-09-30T10:07:33;7.90;;;2.10;;
4307;SDS011;2167;53.448;9.984;2023-09-30T10:10:00;3.57;;;1.13;;
4307;SDS011;2167;53.448;9.984;2023-09-30T10:12:27;4.83;;;1.20;;
4307;SDS011;2167;53.448;9.984;2023-09-30T10:14:53;3.90;;;1.30;;
4307;SDS011;2167;53.448;9.984;2023-09-30T10:17:19;6.10;;;1.13;;
4307;SDS011;2167;53.448;9.984;2023-09-30T10:20:04;4.20;;;1.90;;
4307;SDS011;2167;53.448;9.984;2023-09-30T10:22:34;7.10;;;2.07;;
4307;SDS011;2167;53.448;9.984;2023-09-30T10:25:00;2.67;;;1.77;;
4307;SDS011;2167;53.448;9.984;2023-09-30T10:27:30;2.60;;;1.40;;
4307;SDS011;2167;53.448;9.984;2023-09-30T10:35:19;2.23;;;1.40;;
4307;SDS011;2167;53.448;9.984;2023-09-30T10:37:46;8.67;;;1.67;;
4307;SDS011;2167;53.448;9.984;2023-09-30T10:40:28;3.97;;;1.27;;
4307;SDS011;2167;53.448;9.984;2023-09-30T10:42:54;3.33;;;1.03;;
4307;SDS011;2167;53.448;9.984;2023-09-30T10:50:56;12.13;;;1.50;;
4307;SDS011;2167;53.448;9.984;2023-09-30T10:53:25;4.33;;;1.37;;
4307;SDS011;2167;53.448;9.984;2023-09-30T10:55:56;3.97;;;1.33;;
4307;SDS011;2167;53.448;9.984;2023-09-30T11:01:31;2.00;;;1.10;;
4307;SDS011;2167;53.448;9.984;2023-09-30T11:04:01;3.33;;;1.10;;
4307;SDS011;2167;53.448;9.984;2023-09-30T11:06:29;3.10;;;1.10;;
4307;SDS011;2167;53.448;9.984;2023-09-30T11:08:56;4.93;;;1.67;;
4307;SDS011;2167;53.448;9.984;2023-09-30T11:14:02;5.03;;;1.40;;
4307;SDS011;2167;53.448;9.984;2023-09-30T11:16:39;5.50;;;0.97;;
4307;SDS011;2167;53.448;9.984;2023-09-30T11:19:05;5.53;;;1.87;;
4307;SDS011;2167;53.448;9.984;2023-09-30T11:21:33;2.60;;;1.10;;
4307;SDS011;2167;53.448;9.984;2023-09-30T11:24:00;5.03;;;1.10;;
4307;SDS011;2167;53.448;9.984;2023-09-30T11:26:29;3.97;;;0.93;;
4307;SDS011;2167;53.448;9.984;2023-09-30T11:29:12;6.27;;;1.30;;
4307;SDS011;2167;53.448;9.984;2023-09-30T11:31:39;3.93;;;1.00;;
4307;SDS011;2167;53.448;9.984;2023-09-30T11:34:05;3.23;;;1.10;;
4307;SDS011;2167;53.448;9.984;2023-09-30T11:36:34;3.10;;;1.30;;
4307;SDS011;2167;53.448;9.984;2023-09-30T11:39:00;5.53;;;0.97;;
4307;SDS011;2167;53.448;9.984;2023-09-30T11:41:34;4.77;;;1.53;;
4307;SDS011;2167;53.448;9.984;2023-09-30T11:44:06;6.03;;;1.33;;
4307;SDS011;2167;53.448;9.984;2023-09-30T11:46:46;5.97;;;1.10;;
4307;SDS011;2167;53.448;9.984;2023-09-30T11:49:23;5.23;;;1.33;;
4307;SDS011;2167;53.448;9.984;2023-09-30T11:51:49;0.70;;;0.60;;
4307;SDS011;2167;53.448;9.984;2023-09-30T11:54:15;4.23;;;1.57;;
4307;SDS011;2167;53.448;9.984;2023-09-30T11:56:50;2.33;;;0.70;;
4307;SDS011;2167;53.448;9.984;2023-09-30T11:59:16;3.50;;;1.60;;
4307;SDS011;2167;53.448;9.984;2023-09-30T12:01:44;4.80;;;1.43;;
4307;SDS011;2167;53.448;9.984;2023-09-30T12:04:10;2.20;;;1.13;;
4307;SDS011;2167;53.448;9.984;2023-09-30T12:06:36;2.70;;;0.60;;
4307;SDS011;2167;53.448;9.984;2023-09-30T12:09:03;3.30;;;2.30;;
4307;SDS011;2167;53.448;9.984;2023-09-30T12:11:29;4.20;;;1.00;;
4307;SDS011;2167;53.448;9.984;2023-09-30T12:13:55;2.70;;;1.30;;
4307;SDS011;2167;53.448;9.984;2023-09-30T12:16:21;5.50;;;1.20;;
4307;SDS011;2167;53.448;9.984;2023-09-30T12:18:48;14.10;;;1.40;;
4307;SDS011;2167;53.448;9.984;2023-09-30T12:21:14;1.87;;;1.27;;
4307;SDS011;2167;53.448;9.984;2023-09-30T12:23:46;1.73;;;1.37;;
4307;SDS011;2167;53.448;9.984;2023-09-30T12:26:13;1.57;;;1.00;;
4307;SDS011;2167;53.448;9.984;2023-09-30T12:28:39;1.43;;;0.80;;
4307;SDS011;2167;53.448;9.984;2023-09-30T12:31:06;2.97;;;1.13;;
4307;SDS011;2167;53.448;9.984;2023-09-30T12:33:31;7.60;;;1.60;;
4307;SDS011;2167;53.448;9.984;2023-09-30T12:35:58;3.70;;;1.00;;
4307;SDS011;2167;53.448;9.984;2023-09-30T12:38:25;2.83;;;0.90;;
4307;SDS011;2167;53.448;9.984;2023-09-30T12:40:52;5.80;;;0.97;;
4307;SDS011;2167;53.448;9.984;2023-09-30T12:43:18;2.20;;;1.27;;
4307;SDS011;2167;53.448;9.984;2023-09-30T12:45:45;2.80;;;1.37;;
4307;SDS011;2167;53.448;9.984;2023-09-30T12:48:12;1.33;;;1.03;;
4307;SDS011;2167;53.448;9.984;2023-09-30T12:50:38;3.30;;;0.87;;
4307;SDS011;2167;53.448;9.984;2023-09-30T12:53:04;2.23;;;0.87;;
4307;SDS011;2167;53.448;9.984;2023-09-30T12:55:30;3.90;;;1.07;;
4307;SDS011;2167;53.448;9.984;2023-09-30T12:57:56;5.80;;;0.70;;
4307;SDS011;2167;53.448;9.984;2023-09-30T13:00:22;4.47;;;1.20;;
4307;SDS011;2167;53.448;9.984;2023-09-30T13:02:48;1.13;;;1.03;;
4307;SDS011;2167;53.448;9.984;2023-09-30T13:05:14;4.40;;;1.10;;
4307;SDS011;2167;53.448;9.984;2023-09-30T13:07:42;4.10;;;1.07;;
4307;SDS011;2167;53.448;9.984;2023-09-30T13:10:08;4.20;;;1.17;;
4307;SDS011;2167;53.448;9.984;2023-09-30T13:12:34;4.00;;;1.00;;
4307;SDS011;2167;53.448;9.984;2023-09-30T13:15:00;1.10;;;1.00;;
4307;SDS011;2167;53.448;9.984;2023-09-30T13:17:27;3.60;;;1.30;;
4307;SDS011;2167;53.448;9.984;2023-09-30T13:19:54;1.10;;;0.73;;
4307;SDS011;2167;53.448;9.984;2023-09-30T13:22:20;6.43;;;1.47;;
4307;SDS011;2167;53.448;9.984;2023-09-30T13:24:46;5.90;;;0.97;;
4307;SDS011;2167;53.448;9.984;2023-09-30T13:27:12;1.33;;;0.70;;
4307;SDS011;2167;53.448;9.984;2023-09-30T13:29:41;1.63;;;1.20;;
4307;SDS011;2167;53.448;9.984;2023-09-30T13:32:09;2.20;;;1.13;;
4307;SDS011;2167;53.448;9.984;2023-09-30T13:34:35;2.50;;;1.00;;
4307;SDS011;2167;53.448;9.984;2023-09-30T13:37:01;1.23;;;0.80;;
4307;SDS011;2167;53.448;9.984;2023-09-30T13:39:27;5.10;;;0.90;;
4307;SDS011;2167;53.448;9.984;2023-09-30T13:41:54;2.87;;;1.23;;
4307;SDS011;2167;53.448;9.984;2023-09-30T13:44:20;4.73;;;0.93;;
4307;SDS011;2167;53.448;9.984;2023-09-30T13:46:46;3.50;;;1.20;;
4307;SDS011;2167;53.448;9.984;2023-09-30T13:49:13;6.80;;;0.80;;
4307;SDS011;2167;53.448;9.984;2023-09-30T13:51:39;4.53;;;1.57;;
4307;SDS011;2167;53.448;9.984;2023-09-30T13:54:05;3.13;;;0.93;;
4307;SDS011;2167;53.448;9.984;2023-09-30T13:56:32;4.63;;;1.00;;
4307;SDS011;2167;53.448;9.984;2023-09-30T13:58:58;2.20;;;0.90;;
4307;SDS011;2167;53.448;9.984;2023-09-30T14:01:25;6.83;;;1.30;;
4307;SDS011;2167;53.448;9.984;2023-09-30T14:03:51;6.67;;;1.30;;
4307;SDS011;2167;53.448;9.984;2023-09-30T14:06:22;1.87;;;0.90;;
4307;SDS011;2167;53.448;9.984;2023-09-30T14:08:48;3.57;;;1.10;;
4307;SDS011;2167;53.448;9.984;2023-09-30T14:11:14;7.10;;;1.10;;
4307;SDS011;2167;53.448;9.984;2023-09-30T14:13:40;1.13;;;0.73;;
4307;SDS011;2167;53.448;9.984;2023-09-30T14:16:07;7.70;;;1.00;;
4307;SDS011;2167;53.448;9.984;2023-09-30T14:18:33;1.23;;;1.10;;
4307;SDS011;2167;53.448;9.984;2023-09-30T14:21:01;3.07;;;0.97;;
4307;SDS011;2167;53.448;9.984;2023-09-30T14:23:27;3.37;;;1.10;;
4307;SDS011;2167;53.448;9.984;2023-09-30T14:25:54;2.07;;;0.80;;
4307;SDS011;2167;53.448;9.984;2023-09-30T14:28:21;2.00;;;0.90;;
4307;SDS011;2167;53.448;9.984;2023-09-30T14:30:47;1.20;;;1.00;;
4307;SDS011;2167;53.448;9.984;2023-09-30T14:33:15;5.40;;;1.30;;
4307;SDS011;2167;53.448;9.984;2023-09-30T14:35:41;2.10;;;1.37;;
4307;SDS011;2167;53.448;9.984;2023-09-30T14:38:10;3.97;;;1.43;;
4307;SDS011;2167;53.448;9.984;2023-09-30T14:40:39;4.90;;;1.50;;
4307;SDS011;2167;53.448;9.984;2023-09-30T14:43:09;2.20;;;1.30;;
4307;SDS011;2167;53.448;9.984;2023-09-30T14:45:38;6.10;;;1.40;;
4307;SDS011;2167;53.448;9.984;2023-09-30T14:48:07;3.73;;;2.00;;
4307;SDS011;2167;53.448;9.984;2023-09-30T14:50:34;1.90;;;1.20;;
4307;SDS011;2167;53.448;9.984;2023-09-30T14:53:03;2.60;;;1.03;;
4307;SDS011;2167;53.448;9.984;2023-09-30T14:55:31;2.20;;;1.20;;
4307;SDS011;2167;53.448;9.984;2023-09-30T14:57:57;4.77;;;0.90;;
4307;SDS011;2167;53.448;9.984;2023-09-30T15:00:23;3.47;;;0.97;;
4307;SDS011;2167;53.448;9.984;2023-09-30T15:02:51;1.93;;;0.70;;
4307;SDS011;2167;53.448;9.984;2023-09-30T15:05:19;1.40;;;0.87;;
4307;SDS011;2167;53.448;9.984;2023-09-30T15:07:45;3.83;;;1.80;;
4307;SDS011;2167;53.448;9.984;2023-09-30T15:10:11;4.33;;;1.23;;
4307;SDS011;2167;53.448;9.984;2023-09-30T15:12:37;5.70;;;1.30;;
4307;SDS011;2167;53.448;9.984;2023-09-30T15:15:03;2.10;;;1.13;;
4307;SDS011;2167;53.448;9.984;2023-09-30T15:17:29;6.40;;;1.43;;
4307;SDS011;2167;53.448;9.984;2023-09-30T15:19:55;3.43;;;0.80;;
4307;SDS011;2167;53.448;9.984;2023-09-30T15:22:21;1.43;;;0.70;;
4307;SDS011;2167;53.448;9.984;2023-09-30T15:24:47;4.87;;;1.13;;
4307;SDS011;2167;53.448;9.984;2023-09-30T15:27:14;1.70;;;0.70;;
4307;SDS011;2167;53.448;9.984;2023-09-30T15:29:40;1.93;;;1.10;;
4307;SDS011;2167;53.448;9.984;2023-09-30T15:32:06;1.80;;;1.13;;